sensor_id;sensor_type;location;lat;lon;timestamp;pressure;altitude;pressure_sealevel;temperature;humidity
73594;BME280;62064;53.406;23.500;2022-09-17T00:01:05;98074.38;;;19.59;51.29
73594;BME280;62064;53.406;23.500;2022-09-17T00:03:33;98078.22;;;19.58;51.35
73594;BME280;62064;53.406;23.500;2022-09-17T00:06:06;98070.88;;;19.58;51.67
73594;BME280;62064;53.406;23.500;2022-09-17T00:08:35;98067.41;;;19.53;51.90
73594;BME280;62064;53.406;23.500;2022-09-17T00:11:16;98075.50;;;19.58;51.91
73594;BME280;62064;53.406;23.500;2022-09-17T00:13:43;98067.34;;;19.58;51.60
73594;BME280;62064;53.406;23.500;2022-09-17T00:16:11;98062.25;;;19.51;51.92
73594;BME280;62064;53.406;23.500;2022-09-17T00:18:39;98065.72;;;19.57;51.88
73594;BME280;62064;53.406;23.500;2022-09-17T00:21:14;98068.72;;;19.55;51.70
73594;BME280;62064;53.406;23.500;2022-09-17T00:23:42;98067.13;;;19.54;51.56
73594;BME280;62064;53.406;23.500;2022-09-17T00:26:08;98076.06;;;19.55;51.69
73594;BME280;62064;53.406;23.500;2022-09-17T00:28:34;98063.88;;;19.52;52.01
73594;BME280;62064;53.406;23.500;2022-09-17T00:31:05;98074.97;;;19.56;51.93
73594;BME280;62064;53.406;23.500;2022-09-17T00:33:31;98078.78;;;19.55;51.96
73594;BME280;62064;53.406;23.500;2022-09-17T00:36:02;98088.06;;;19.54;52.00
73594;BME280;62064;53.406;23.500;2022-09-17T00:38:28;98082.69;;;19.49;52.01
73594;BME280;62064;53.406;23.500;2022-09-17T00:40:54;98075.56;;;19.53;51.68
73594;BME280;62064;53.406;23.500;2022-09-17T00:43:33;98081.00;;;19.53;52.20
73594;BME280;62064;53.406;23.500;2022-09-17T00:45:59;98072.56;;;19.54;52.10
73594;BME280;62064;53.406;23.500;2022-09-17T00:48:26;98072.84;;;19.53;51.92
73594;BME280;62064;53.406;23.500;2022-09-17T00:50:52;98073.44;;;19.50;52.20
73594;BME280;62064;53.406;23.500;2022-09-17T00:53:20;98072.91;;;19.48;52.14
73594;BME280;62064;53.406;23.500;2022-09-17T00:55:48;98086.16;;;19.54;51.96
73594;BME280;62064;53.406;23.500;2022-09-17T00:58:19;98091.59;;;19.54;52.17
73594;BME280;62064;53.406;23.500;2022-09-17T01:00:47;98098.94;;;19.54;51.83
73594;BME280;62064;53.406;23.500;2022-09-17T01:03:13;98096.22;;;19.54;52.33
73594;BME280;62064;53.406;23.500;2022-09-17T01:05:44;98101.66;;;19.54;52.42
73594;BME280;62064;53.406;23.500;2022-09-17T01:13:36;98102.75;;;19.53;52.12
73594;BME280;62064;53.406;23.500;2022-09-17T01:32:46;98104.16;;;19.50;52.07
73594;BME280;62064;53.406;23.500;2022-09-17T01:38:14;98106.56;;;19.52;52.17
73594;BME280;62064;53.406;23.500;2022-09-17T01:40:54;98100.31;;;19.51;52.72
73594;BME280;62064;53.406;23.500;2022-09-17T01:43:31;98105.25;;;19.49;52.10
73594;BME280;62064;53.406;23.500;2022-09-17T01:46:06;98099.50;;;19.51;52.33
73594;BME280;62064;53.406;23.500;2022-09-17T01:48:39;98109.28;;;19.52;52.62
73594;BME280;62064;53.406;23.500;2022-09-17T01:51:21;98101.72;;;19.49;52.22
73594;BME280;62064;53.406;23.500;2022-09-17T01:53:58;98105.75;;;19.51;52.63
73594;BME280;62064;53.406;23.500;2022-09-17T01:56:32;98102.22;;;19.51;52.70
73594;BME280;62064;53.406;23.500;2022-09-17T01:59:08;98104.16;;;19.50;52.44
73594;BME280;62064;53.406;23.500;2022-09-17T02:01:36;98109.28;;;19.52;52.20
73594;BME280;62064;53.406;23.500;2022-09-17T02:04:19;98099.28;;;19.47;52.41
73594;BME280;62064;53.406;23.500;2022-09-17T02:06:54;98095.19;;;19.50;52.66
73594;BME280;62064;53.406;23.500;2022-09-17T02:09:43;98105.75;;;19.51;52.64
73594;BME280;62064;53.406;23.500;2022-09-17T02:12:16;98103.34;;;19.50;52.39
73594;BME280;62064;53.406;23.500;2022-09-17T02:14:47;98094.06;;;19.51;52.28
73594;BME280;62064;53.406;23.500;2022-09-17T02:17:20;98096.78;;;19.51;52.44
73594;BME280;62064;53.406;23.500;2022-09-17T02:19:47;98093.84;;;19.47;52.39
73594;BME280;62064;53.406;23.500;2022-09-17T02:22:17;98095.69;;;19.52;52.97
73594;BME280;62064;53.406;23.500;2022-09-17T02:27:35;98098.72;;;19.50;52.39
73594;BME280;62064;53.406;23.500;2022-09-17T02:30:05;98091.13;;;19.47;52.42
73594;BME280;62064;53.406;23.500;2022-09-17T02:32:32;98094.66;;;19.48;52.69
73594;BME280;62064;53.406;23.500;2022-09-17T02:34:58;98092.75;;;19.48;52.76
73594;BME280;62064;53.406;23.500;2022-09-17T02:37:25;98094.97;;;19.46;52.93
73594;BME280;62064;53.406;23.500;2022-09-17T02:39:52;98099.50;;;19.51;52.70
73594;BME280;62064;53.406;23.500;2022-09-17T02:42:33;98097.91;;;19.50;53.04
73594;BME280;62064;53.406;23.500;2022-09-17T02:45:22;98099.59;;;19.46;52.62
73594;BME280;62064;53.406;23.500;2022-09-17T02:48:04;98098.78;;;19.45;52.79
73594;BME280;62064;53.406;23.500;2022-09-17T02:56:11;98107.16;;;19.49;52.76
73594;BME280;62064;53.406;23.500;2022-09-17T02:58:49;98107.16;;;19.49;52.93
73594;BME280;62064;53.406;23.500;2022-09-17T03:01:27;98118.00;;;19.49;53.08
73594;BME280;62064;53.406;23.500;2022-09-17T03:03:54;98109.06;;;19.48;52.59
73594;BME280;62064;53.406;23.500;2022-09-17T03:06:21;98110.69;;;19.49;52.60
73594;BME280;62064;53.406;23.500;2022-09-17T03:08:48;98099.00;;;19.49;52.60
73594;BME280;62064;53.406;23.500;2022-09-17T03:11:14;98102.31;;;19.46;52.91
73594;BME280;62064;53.406;23.500;2022-09-17T03:13:40;98106.34;;;19.48;52.96
73594;BME280;62064;53.406;23.500;2022-09-17T03:16:06;98098.78;;;19.45;52.70
73594;BME280;62064;53.406;23.500;2022-09-17T03:18:33;98102.81;;;19.48;52.62
73594;BME280;62064;53.406;23.500;2022-09-17T03:20:59;98087.09;;;19.45;52.61
73594;BME280;62064;53.406;23.500;2022-09-17T03:23:25;98093.34;;;19.45;53.19
73594;BME280;62064;53.406;23.500;2022-09-17T03:25:53;98094.66;;;19.48;53.04
73594;BME280;62064;53.406;23.500;2022-09-17T03:28:20;98098.47;;;19.47;53.22
73594;BME280;62064;53.406;23.500;2022-09-17T03:30:46;98089.53;;;19.46;53.04
73594;BME280;62064;53.406;23.500;2022-09-17T03:33:13;98084.66;;;19.43;53.08
73594;BME280;62064;53.406;23.500;2022-09-17T03:35:43;98082.47;;;19.45;52.97
73594;BME280;62064;53.406;23.500;2022-09-17T03:38:11;98076.78;;;19.42;52.72
73594;BME280;62064;53.406;23.500;2022-09-17T03:40:37;98091.44;;;19.46;53.27
73594;BME280;62064;53.406;23.500;2022-09-17T03:43:05;98097.97;;;19.45;53.01
73594;BME280;62064;53.406;23.500;2022-09-17T03:45:31;98099.59;;;19.46;52.99
73594;BME280;62064;53.406;23.500;2022-09-17T03:47:57;98086.03;;;19.41;52.93
73594;BME280;62064;53.406;23.500;2022-09-17T03:50:24;98100.09;;;19.48;53.11
73594;BME280;62064;53.406;23.500;2022-09-17T03:52:50;98094.44;;;19.44;52.89
73594;BME280;62064;53.406;23.500;2022-09-17T03:55:16;98096.88;;;19.46;52.97
73594;BME280;62064;53.406;23.500;2022-09-17T03:57:44;98085.53;;;19.39;53.29
73594;BME280;62064;53.406;23.500;2022-09-17T04:00:10;98098.78;;;19.45;53.40
73594;BME280;62064;53.406;23.500;2022-09-17T04:02:40;98092.81;;;19.43;52.96
73594;BME280;62064;53.406;23.500;2022-09-17T04:05:07;98089.56;;;19.41;53.22
73594;BME280;62064;53.406;23.500;2022-09-17T04:07:35;98109.13;;;19.43;52.91
73594;BME280;62064;53.406;23.500;2022-09-17T04:10:00;98111.03;;;19.43;52.97
73594;BME280;62064;53.406;23.500;2022-09-17T04:12:27;98111.56;;;19.45;53.03
73594;BME280;62064;53.406;23.500;2022-09-17T04:14:53;98108.03;;;19.44;53.04
73594;BME280;62064;53.406;23.500;2022-09-17T04:17:19;98115.94;;;19.41;53.39
73594;BME280;62064;53.406;23.500;2022-09-17T04:19:45;98118.91;;;19.44;53.23
73594;BME280;62064;53.406;23.500;2022-09-17T04:22:11;98112.13;;;19.42;52.86
73594;BME280;62064;53.406;23.500;2022-09-17T04:24:37;98110.50;;;19.41;53.14
73594;BME280;62064;53.406;23.500;2022-09-17T04:27:03;98101.53;;;19.40;53.25
73594;BME280;62064;53.406;23.500;2022-09-17T04:29:29;98101.25;;;19.42;53.34
73594;BME280;62064;53.406;23.500;2022-09-17T04:31:55;98109.13;;;19.43;53.30
73594;BME280;62064;53.406;23.500;2022-09-17T04:34:22;98101.03;;;19.38;53.48
73594;BME280;62064;53.406;23.500;2022-09-17T04:36:47;98103.97;;;19.42;52.84
73594;BME280;62064;53.406;23.500;2022-09-17T04:39:13;98100.72;;;19.40;53.39
73594;BME280;62064;53.406;23.500;2022-09-17T04:41:40;98108.31;;;19.43;53.46
73594;BME280;62064;53.406;23.500;2022-09-17T04:44:06;98102.63;;;19.39;53.53
73594;BME280;62064;53.406;23.500;2022-09-17T04:46:32;98108.31;;;19.43;53.30
73594;BME280;62064;53.406;23.500;2022-09-17T04:48:58;98113.75;;;19.43;53.01
73594;BME280;62064;53.406;23.500;2022-09-17T04:51:24;98110.25;;;19.42;53.45
73594;BME280;62064;53.406;23.500;2022-09-17T04:53:50;98105.59;;;19.43;53.21
73594;BME280;62064;53.406;23.500;2022-09-17T04:56:17;98101.25;;;19.42;53.42
73594;BME280;62064;53.406;23.500;2022-09-17T04:58:42;98095.00;;;19.41;52.90
73594;BME280;62064;53.406;23.500;2022-09-17T05:01:08;98096.06;;;19.45;53.24
73594;BME280;62064;53.406;23.500;2022-09-17T05:03:35;98098.53;;;19.42;53.32
73594;BME280;62064;53.406;23.500;2022-09-17T05:06:01;98101.50;;;19.45;53.52
73594;BME280;62064;53.406;23.500;2022-09-17T05:08:27;98098.78;;;19.45;53.25
73594;BME280;62064;53.406;23.500;2022-09-17T05:10:54;98095.81;;;19.42;52.94
73594;BME280;62064;53.406;23.500;2022-09-17T05:13:21;98082.81;;;19.39;53.45
73594;BME280;62064;53.406;23.500;2022-09-17T05:15:47;98099.59;;;19.46;53.40
73594;BME280;62064;53.406;23.500;2022-09-17T05:18:14;98091.47;;;19.41;53.38
73594;BME280;62064;53.406;23.500;2022-09-17T05:20:40;98087.13;;;19.40;53.17
73594;BME280;62064;53.406;23.500;2022-09-17T05:23:06;98096.88;;;19.46;53.24
73594;BME280;62064;53.406;23.500;2022-09-17T05:25:32;98102.31;;;19.46;53.48
73594;BME280;62064;53.406;23.500;2022-09-17T05:27:58;98103.13;;;19.46;53.46
73594;BME280;62064;53.406;23.500;2022-09-17T05:30:25;98108.03;;;19.44;53.05
73594;BME280;62064;53.406;23.500;2022-09-17T05:33:03;98115.91;;;19.46;52.91
73594;BME280;62064;53.406;23.500;2022-09-17T05:35:33;98107.75;;;19.46;52.98
73594;BME280;62064;53.406;23.500;2022-09-17T05:38:03;98116.72;;;19.46;53.31
73594;BME280;62064;53.406;23.500;2022-09-17T05:40:30;98117.78;;;19.45;53.42
73594;BME280;62064;53.406;23.500;2022-09-17T05:42:59;98129.16;;;19.47;53.58
73594;BME280;62064;53.406;23.500;2022-09-17T05:45:25;98126.75;;;19.46;53.56
73594;BME280;62064;53.406;23.500;2022-09-17T05:47:56;98120.78;;;19.44;53.60
73594;BME280;62064;53.406;23.500;2022-09-17T05:50:22;98118.00;;;19.49;53.01
73594;BME280;62064;53.406;23.500;2022-09-17T05:52:49;98120.53;;;19.45;53.51
73594;BME280;62064;53.406;23.500;2022-09-17T05:55:16;98117.22;;;19.48;53.17
73594;BME280;62064;53.406;23.500;2022-09-17T05:57:45;98114.84;;;19.42;53.63
73594;BME280;62064;53.406;23.500;2022-09-17T06:00:11;98119.63;;;19.50;53.11
73594;BME280;62064;53.406;23.500;2022-09-17T06:02:41;98119.63;;;19.50;53.12
73594;BME280;62064;53.406;23.500;2022-09-17T06:05:07;98122.63;;;19.48;53.41
73594;BME280;62064;53.406;23.500;2022-09-17T06:07:34;98134.53;;;19.52;53.73
73594;BME280;62064;53.406;23.500;2022-09-17T06:10:02;98134.03;;;19.50;53.74
73594;BME280;62064;53.406;23.500;2022-09-17T06:12:28;98128.59;;;19.50;53.73
73594;BME280;62064;53.406;23.500;2022-09-17T06:14:57;98135.34;;;19.53;53.88
73594;BME280;62064;53.406;23.500;2022-09-17T06:17:23;98138.06;;;19.53;53.28
73594;BME280;62064;53.406;23.500;2022-09-17T06:19:51;98140.78;;;19.53;53.38
73594;BME280;62064;53.406;23.500;2022-09-17T06:22:18;98142.41;;;19.54;53.30
73594;BME280;62064;53.406;23.500;2022-09-17T06:24:45;98146.22;;;19.53;53.70
73594;BME280;62064;53.406;23.500;2022-09-17T06:27:11;98142.91;;;19.56;53.50
73594;BME280;62064;53.406;23.500;2022-09-17T06:29:42;98141.28;;;19.55;53.89
73594;BME280;62064;53.406;23.500;2022-09-17T06:32:11;98144.31;;;19.53;53.83
73594;BME280;62064;53.406;23.500;2022-09-17T06:34:44;98149.97;;;19.57;53.73
73594;BME280;62064;53.406;23.500;2022-09-17T06:37:10;98143.78;;;19.51;53.62
73594;BME280;62064;53.406;23.500;2022-09-17T06:39:36;98151.06;;;19.56;53.33
73594;BME280;62064;53.406;23.500;2022-09-17T06:42:03;98154.31;;;19.58;53.47
73594;BME280;62064;53.406;23.500;2022-09-17T06:44:29;98147.53;;;19.55;53.68
73594;BME280;62064;53.406;23.500;2022-09-17T06:46:55;98148.88;;;19.58;53.60
73594;BME280;62064;53.406;23.500;2022-09-17T06:49:21;98143.44;;;19.58;53.45
73594;BME280;62064;53.406;23.500;2022-09-17T06:51:48;98152.91;;;19.60;53.64
73594;BME280;62064;53.406;23.500;2022-09-17T06:54:14;98150.72;;;19.62;53.44
73594;BME280;62064;53.406;23.500;2022-09-17T06:56:41;98154.22;;;19.63;53.66
73594;BME280;62064;53.406;23.500;2022-09-17T06:59:07;98144.47;;;19.62;53.52
73594;BME280;62064;53.406;23.500;2022-09-17T07:01:34;98153.13;;;19.64;54.00
73594;BME280;62064;53.406;23.500;2022-09-17T07:04:01;98153.94;;;19.64;53.35
73594;BME280;62064;53.406;23.500;2022-09-17T07:06:28;98156.94;;;19.63;53.92
73594;BME280;62064;53.406;23.500;2022-09-17T07:08:54;98149.31;;;19.65;53.73
73594;BME280;62064;53.406;23.500;2022-09-17T07:11:21;98158.78;;;19.67;53.88
73594;BME280;62064;53.406;23.500;2022-09-17T07:13:47;98149.81;;;19.67;53.92
73594;BME280;62064;53.406;23.500;2022-09-17T07:16:14;98155.25;;;19.67;53.89
73594;BME280;62064;53.406;23.500;2022-09-17T07:18:40;98146.59;;;19.65;53.86
73594;BME280;62064;53.406;23.500;2022-09-17T07:21:08;98151.97;;;19.70;53.55
73594;BME280;62064;53.406;23.500;2022-09-17T07:23:35;98160.94;;;19.71;53.96
73594;BME280;62064;53.406;23.500;2022-09-17T07:26:06;98160.19;;;19.65;53.66
73594;BME280;62064;53.406;23.500;2022-09-17T07:28:33;98162.84;;;19.70;54.01
73594;BME280;62064;53.406;23.500;2022-09-17T07:31:03;98159.53;;;19.73;53.85
73594;BME280;62064;53.406;23.500;2022-09-17T07:33:34;98167.69;;;19.73;53.51
73594;BME280;62064;53.406;23.500;2022-09-17T07:36:07;98161.44;;;19.73;53.53
73594;BME280;62064;53.406;23.500;2022-09-17T07:38:34;98163.06;;;19.74;53.89
73594;BME280;62064;53.406;23.500;2022-09-17T07:41:09;98165.47;;;19.75;54.10
73594;BME280;62064;53.406;23.500;2022-09-17T07:43:40;98169.00;;;19.76;54.61
73594;BME280;62064;53.406;23.500;2022-09-17T07:46:07;98162.69;;;19.80;54.91
73594;BME280;62064;53.406;23.500;2022-09-17T07:48:35;98164.25;;;19.86;55.22
73594;BME280;62064;53.406;23.500;2022-09-17T07:51:01;98160.94;;;19.89;55.10
73594;BME280;62064;53.406;23.500;2022-09-17T07:53:30;98155.97;;;19.91;55.90
73594;BME280;62064;53.406;23.500;2022-09-17T07:56:00;98159.94;;;19.99;55.87
73594;BME280;62064;53.406;23.500;2022-09-17T07:58:30;98159.38;;;20.02;56.06
73594;BME280;62064;53.406;23.500;2022-09-17T08:01:07;98156.34;;;20.03;55.73
73594;BME280;62064;53.406;23.500;2022-09-17T08:03:36;98150.81;;;20.08;55.91
73594;BME280;62064;53.406;23.500;2022-09-17T08:06:22;98143.47;;;20.09;56.07
73594;BME280;62064;53.406;23.500;2022-09-17T08:08:55;98148.53;;;20.15;56.22
73594;BME280;62064;53.406;23.500;2022-09-17T08:11:24;98145.19;;;20.18;56.38
73594;BME280;62064;53.406;23.500;2022-09-17T08:13:52;98146.53;;;20.21;56.29
73594;BME280;62064;53.406;23.500;2022-09-17T08:16:20;98136.00;;;20.14;56.30
73594;BME280;62064;53.406;23.500;2022-09-17T08:18:48;98141.91;;;20.22;56.29
73594;BME280;62064;53.406;23.500;2022-09-17T08:21:22;98130.56;;;20.14;56.76
73594;BME280;62064;53.406;23.500;2022-09-17T08:23:55;98134.09;;;20.15;56.32
73594;BME280;62064;53.406;23.500;2022-09-17T08:26:24;98167.91;;;20.28;56.68
73594;BME280;62064;53.406;23.500;2022-09-17T08:29:00;98164.13;;;20.29;57.07
73594;BME280;62064;53.406;23.500;2022-09-17T08:31:26;98158.09;;;20.32;56.89
73594;BME280;62064;53.406;23.500;2022-09-17T08:33:55;98147.56;;;20.25;57.26
73594;BME280;62064;53.406;23.500;2022-09-17T08:36:22;98172.09;;;20.39;56.78
73594;BME280;62064;53.406;23.500;2022-09-17T08:38:54;98165.56;;;20.40;56.59
73594;BME280;62064;53.406;23.500;2022-09-17T08:46:56;98171.22;;;20.43;56.65
73594;BME280;62064;53.406;23.500;2022-09-17T08:49:45;98172.56;;;20.46;57.11
73594;BME280;62064;53.406;23.500;2022-09-17T08:55:20;98171.75;;;20.45;57.03
73594;BME280;62064;53.406;23.500;2022-09-17T09:04:01;98162.75;;;20.45;56.80
73594;BME280;62064;53.406;23.500;2022-09-17T09:06:34;98176.28;;;20.50;56.69
73594;BME280;62064;53.406;23.500;2022-09-17T09:09:10;98166.41;;;20.54;57.08
73594;BME280;62064;53.406;23.500;2022-09-17T09:11:47;98176.78;;;20.52;57.26
73594;BME280;62064;53.406;23.500;2022-09-17T09:17:28;98164.81;;;20.53;57.23
73594;BME280;62064;53.406;23.500;2022-09-17T09:20:04;98186.91;;;20.65;57.67
73594;BME280;62064;53.406;23.500;2022-09-17T09:22:49;98169.47;;;20.66;57.57
73594;BME280;62064;53.406;23.500;2022-09-17T09:25:19;98177.94;;;20.65;57.40
73594;BME280;62064;53.406;23.500;2022-09-17T09:33:56;98165.22;;;20.60;57.27
73594;BME280;62064;53.406;23.500;2022-09-17T09:36:27;98182.47;;;20.69;57.01
73594;BME280;62064;53.406;23.500;2022-09-17T09:41:59;98190.66;;;20.69;57.30
73594;BME280;62064;53.406;23.500;2022-09-17T09:44:29;98197.19;;;20.68;57.00
73594;BME280;62064;53.406;23.500;2022-09-17T09:58:08;98209.59;;;20.74;56.82
73594;BME280;62064;53.406;23.500;2022-09-17T10:00:38;98202.56;;;20.73;56.93
73594;BME280;62064;53.406;23.500;2022-09-17T10:03:15;98206.59;;;20.76;56.74
73594;BME280;62064;53.406;23.500;2022-09-17T10:08:24;98200.31;;;20.75;56.63
73594;BME280;62064;53.406;23.500;2022-09-17T10:13:25;98188.75;;;20.70;56.37
73594;BME280;62064;53.406;23.500;2022-09-17T10:15:52;98202.44;;;20.78;56.79
73594;BME280;62064;53.406;23.500;2022-09-17T10:18:23;98202.97;;;20.80;56.62
73594;BME280;62064;53.406;23.500;2022-09-17T10:20:50;98200.25;;;20.80;56.53
73594;BME280;62064;53.406;23.500;2022-09-17T10:23:19;98209.03;;;20.77;56.46
73594;BME280;62064;53.406;23.500;2022-09-17T10:25:46;98213.56;;;20.82;56.24
73594;BME280;62064;53.406;23.500;2022-09-17T10:31:05;98219.81;;;20.82;56.79
73594;BME280;62064;53.406;23.500;2022-09-17T10:36:43;98226.97;;;20.78;56.30
73594;BME280;62064;53.406;23.500;2022-09-17T10:42:16;98229.59;;;20.83;56.55
73594;BME280;62064;53.406;23.500;2022-09-17T10:44:53;98217.69;;;20.79;56.02
73594;BME280;62064;53.406;23.500;2022-09-17T10:47:40;98223.06;;;20.84;56.60
73594;BME280;62064;53.406;23.500;2022-09-17T10:50:17;98234.44;;;20.86;56.49
73594;BME280;62064;53.406;23.500;2022-09-17T10:52:54;98234.16;;;20.88;56.13
73594;BME280;62064;53.406;23.500;2022-09-17T10:55:30;98234.16;;;20.88;56.04
73594;BME280;62064;53.406;23.500;2022-09-17T11:03:47;98234.34;;;20.91;56.25
73594;BME280;62064;53.406;23.500;2022-09-17T11:17:56;98236.47;;;20.94;56.53
73594;BME280;62064;53.406;23.500;2022-09-17T11:26:00;98238.91;;;20.96;56.70
73594;BME280;62064;53.406;23.500;2022-09-17T11:32:06;98238.91;;;20.96;56.02
73594;BME280;62064;53.406;23.500;2022-09-17T11:34:59;98238.91;;;20.96;56.58
73594;BME280;62064;53.406;23.500;2022-09-17T11:37:41;98237.50;;;20.98;56.54
73594;BME280;62064;53.406;23.500;2022-09-17T11:43:11;98230.94;;;20.99;56.85
73594;BME280;62064;53.406;23.500;2022-09-17T11:45:47;98226.38;;;20.95;56.77
73594;BME280;62064;53.406;23.500;2022-09-17T11:48:22;98235.91;;;20.97;56.87
73594;BME280;62064;53.406;23.500;2022-09-17T11:53:22;98236.31;;;21.04;56.84
73594;BME280;62064;53.406;23.500;2022-09-17T11:55:55;98243.38;;;21.05;57.16
73594;BME280;62064;53.406;23.500;2022-09-17T11:58:33;98250.94;;;21.08;57.47
73594;BME280;62064;53.406;23.500;2022-09-17T12:01:06;98227.81;;;21.06;57.89
73594;BME280;62064;53.406;23.500;2022-09-17T12:03:46;98226.41;;;21.08;57.85
73594;BME280;62064;53.406;23.500;2022-09-17T12:06:22;98232.09;;;21.12;58.18
73594;BME280;62064;53.406;23.500;2022-09-17T12:09:17;98232.91;;;21.13;58.14
73594;BME280;62064;53.406;23.500;2022-09-17T12:12:00;98226.38;;;21.14;57.96
73594;BME280;62064;53.406;23.500;2022-09-17T12:15:02;98230.09;;;21.18;58.33
73594;BME280;62064;53.406;23.500;2022-09-17T12:17:58;98232.50;;;21.19;58.06
73594;BME280;62064;53.406;23.500;2022-09-17T12:20:34;98229.50;;;21.21;57.88
73594;BME280;62064;53.406;23.500;2022-09-17T12:23:05;98220.59;;;21.15;57.76
73594;BME280;62064;53.406;23.500;2022-09-17T12:44:18;98256.72;;;21.34;57.49
73594;BME280;62064;53.406;23.500;2022-09-17T12:53:27;98260.78;;;21.37;57.30
73594;BME280;62064;53.406;23.500;2022-09-17T12:59:30;98244.44;;;21.37;57.39
73594;BME280;62064;53.406;23.500;2022-09-17T13:13:55;98234.84;;;21.39;57.51
73594;BME280;62064;53.406;23.500;2022-09-17T13:16:39;98229.91;;;21.41;57.43
73594;BME280;62064;53.406;23.500;2022-09-17T13:22:09;98223.03;;;21.44;57.04
73594;BME280;62064;53.406;23.500;2022-09-17T13:24:40;98236.66;;;21.44;57.03
73594;BME280;62064;53.406;23.500;2022-09-17T13:27:26;98236.56;;;21.49;57.09
73594;BME280;62064;53.406;23.500;2022-09-17T13:43:21;98263.91;;;21.44;55.69
73594;BME280;62064;53.406;23.500;2022-09-17T13:48:28;98263.72;;;21.40;55.60
73594;BME280;62064;53.406;23.500;2022-09-17T13:50:55;98258.69;;;21.34;55.40
73594;BME280;62064;53.406;23.500;2022-09-17T13:53:24;98261.41;;;21.34;55.05
73594;BME280;62064;53.406;23.500;2022-09-17T13:55:56;98269.88;;;21.32;55.06
73594;BME280;62064;53.406;23.500;2022-09-17T13:58:32;98272.88;;;21.31;55.36
73594;BME280;62064;53.406;23.500;2022-09-17T14:01:06;98269.16;;;21.27;55.32
73594;BME280;62064;53.406;23.500;2022-09-17T14:11:38;98263.38;;;21.15;54.73
73594;BME280;62064;53.406;23.500;2022-09-17T14:16:33;98261.19;;;21.17;54.45
73594;BME280;62064;53.406;23.500;2022-09-17T14:40:34;98253.06;;;20.98;54.43
73594;BME280;62064;53.406;23.500;2022-09-17T14:43:01;98265.88;;;20.97;54.25
73594;BME280;62064;53.406;23.500;2022-09-17T14:45:40;98260.22;;;20.94;54.22
73594;BME280;62064;53.406;23.500;2022-09-17T14:48:51;98223.31;;;20.69;54.18
73594;BME280;62064;53.406;23.500;2022-09-17T14:52:39;98261.31;;;20.93;53.72
73594;BME280;62064;53.406;23.500;2022-09-17T14:55:29;98262.69;;;20.90;54.36
73594;BME280;62064;53.406;23.500;2022-09-17T14:59:22;98251.31;;;20.88;53.80
73594;BME280;62064;53.406;23.500;2022-09-17T15:03:18;98210.19;;;20.57;53.69
73594;BME280;62064;53.406;23.500;2022-09-17T15:05:46;98260.38;;;20.84;54.00
73594;BME280;62064;53.406;23.500;2022-09-17T15:08:18;98243.00;;;20.80;54.15
73594;BME280;62064;53.406;23.500;2022-09-17T15:10:52;98247.66;;;20.79;53.84
73594;BME280;62064;53.406;23.500;2022-09-17T15:16:24;98257.44;;;20.80;54.41
73594;BME280;62064;53.406;23.500;2022-09-17T15:19:08;98255.00;;;20.79;54.46
73594;BME280;62064;53.406;23.500;2022-09-17T15:21:43;98250.38;;;20.79;54.67
73594;BME280;62064;53.406;23.500;2022-09-17T15:27:45;98267.25;;;20.81;55.11
73594;BME280;62064;53.406;23.500;2022-09-17T15:30:49;98217.34;;;20.53;55.41
73594;BME280;62064;53.406;23.500;2022-09-17T15:33:21;98250.16;;;20.76;55.90
73594;BME280;62064;53.406;23.500;2022-09-17T15:38:50;98264.06;;;20.74;56.44
73594;BME280;62064;53.406;23.500;2022-09-17T15:41:25;98264.06;;;20.74;56.53
73594;BME280;62064;53.406;23.500;2022-09-17T15:43:52;98254.38;;;20.68;56.53
73594;BME280;62064;53.406;23.500;2022-09-17T15:46:27;98259.53;;;20.70;56.70
73594;BME280;62064;53.406;23.500;2022-09-17T15:48:59;98255.47;;;20.67;56.66
73594;BME280;62064;53.406;23.500;2022-09-17T15:51:28;98259.03;;;20.68;55.98
73594;BME280;62064;53.406;23.500;2022-09-17T15:57:32;98228.59;;;20.47;56.28
73594;BME280;62064;53.406;23.500;2022-09-17T16:00:21;98263.84;;;20.71;55.78
73594;BME280;62064;53.406;23.500;2022-09-17T16:02:55;98264.69;;;20.71;56.46
73594;BME280;62064;53.406;23.500;2022-09-17T16:05:45;98270.66;;;20.73;55.68
73594;BME280;62064;53.406;23.500;2022-09-17T16:08:21;98272.56;;;20.73;56.07
73594;BME280;62064;53.406;23.500;2022-09-17T16:10:56;98274.47;;;20.72;55.32
73594;BME280;62064;53.406;23.500;2022-09-17T16:13:23;98277.47;;;20.71;55.19
73594;BME280;62064;53.406;23.500;2022-09-17T16:15:59;98277.78;;;20.69;54.77
73594;BME280;62064;53.406;23.500;2022-09-17T16:18:28;98271.00;;;20.67;55.00
73594;BME280;62064;53.406;23.500;2022-09-17T16:20:56;98271.00;;;20.67;55.27
73594;BME280;62064;53.406;23.500;2022-09-17T16:23:30;98281.31;;;20.70;54.97
73594;BME280;62064;53.406;23.500;2022-09-17T16:26:16;98277.19;;;20.72;55.35
73594;BME280;62064;53.406;23.500;2022-09-17T16:29:35;98238.22;;;20.58;55.42
73594;BME280;62064;53.406;23.500;2022-09-17T16:32:50;98261.25;;;20.79;55.21
